Terminal Aerodrome Forecast
Issued by NWS Raleigh/Durham, NC

Home | Current Version | Previous Version | Text Only | Print | Product List | Glossary On
Versions: 1 2 3 4 5 6 7 8 9 10 11 12 13 14 15 16 17 18 19 20 21 22 23 24 25 26 27 28 29
000
FTUS42 KRAH 211730
TAFFAY
TAF
KFAY 211730Z 2118/2218 36009KT P6SM SCT250
      TEMPO 2118/2120 35009G19KT P6SM SCT250
     FM212300 04003KT P6SM FEW250=

USA.gov is the U.S. government's official web portal to all federal, state and local government web resources and services.